EmailTwitter


Observations de surface / France / LFBD (07510)

Régions: Québec | Canada | États-Unis | Europe | France | UK | Ailleurs
Station
Affichage
Infos & localisation pour LFBD (07510) | Aide pour décoder les METARs

Observations prises le 2018-12-15 à 20H00 UTC à BORDEAUX/MERIGNA, FR (LFBD)

Etat du ciel: couvert.

Obstacle(s) à la visibilité: faible pluie et brume.

Température: 9.0 Celsius

Point de rosée: 9.0 Celsius

Humidité relative: 100%

Vents: Sud-est à 2 km/h ou 1 noeuds.

Pression au niveau moyen de la mer: 101.50 kilopascals.

Visibilité horizontale: 3.11 milles terrestres ou 4.97 kilomètres.

Hauteur du plafond: 2743 mètres ( 9000 pieds ).

Observation METAR:

LFBD 152000Z AUTO 13001KT 5000 -RA BR FEW008/// OVC090/// ///TCU 09/09 Q1015

TEMPO 25010KT RA BKN008=